createdAt,value
2022-07-25T00:01:16.050Z,13.97
2022-07-25T00:03:47.097Z,15.23
2022-07-25T00:06:17.956Z,12.30
2022-07-25T00:08:44.868Z,13.77
2022-07-25T00:11:11.530Z,13.03
2022-07-25T00:13:40.295Z,12.37
2022-07-25T00:16:07.103Z,12.70
2022-07-25T00:18:33.892Z,11.10
2022-07-25T00:21:00.617Z,11.10
2022-07-25T00:23:27.270Z,11.10
2022-07-25T00:25:54.045Z,12.23
2022-07-25T00:28:20.822Z,11.83
2022-07-25T00:30:48.052Z,12.47
2022-07-25T00:33:14.812Z,13.00
2022-07-25T00:35:41.519Z,12.80
2022-07-25T00:38:08.229Z,12.00
2022-07-25T00:40:35.400Z,12.20
2022-07-25T00:43:02.120Z,12.47
2022-07-25T00:45:28.839Z,12.67
2022-07-25T00:47:55.495Z,12.37
2022-07-25T00:50:22.181Z,13.27
2022-07-25T00:52:49.094Z,13.57
2022-07-25T00:55:15.849Z,15.13
2022-07-25T00:57:42.596Z,13.83
2022-07-25T01:00:12.271Z,12.87
2022-07-25T01:02:38.985Z,12.30
2022-07-25T01:05:06.090Z,13.90
2022-07-25T01:07:32.808Z,13.30
2022-07-25T01:10:00.138Z,14.00
2022-07-25T01:12:27.024Z,15.17
2022-07-25T01:14:53.694Z,12.80
2022-07-25T01:17:20.333Z,14.03
2022-07-25T01:19:47.338Z,13.83
2022-07-25T01:22:14.019Z,14.47
2022-07-25T01:24:40.881Z,14.43
2022-07-25T01:27:07.555Z,13.53
2022-07-25T01:29:34.296Z,15.40
2022-07-25T01:32:02.845Z,15.70
2022-07-25T01:34:29.500Z,14.53
2022-07-25T01:36:56.169Z,16.37
2022-07-25T01:39:22.880Z,15.73
2022-07-25T01:41:49.755Z,16.73
2022-07-25T01:44:17.393Z,15.30
2022-07-25T01:46:44.203Z,15.83
2022-07-25T01:49:11.073Z,16.90
2022-07-25T01:51:37.905Z,14.50
2022-07-25T01:54:08.953Z,17.40
2022-07-25T01:56:37.217Z,17.00
2022-07-25T01:59:03.905Z,15.50
2022-07-25T02:01:30.646Z,16.30
2022-07-25T02:03:57.358Z,15.00
2022-07-25T02:06:24.018Z,16.27
2022-07-25T02:08:50.710Z,16.90
2022-07-25T02:11:17.409Z,16.40
2022-07-25T02:13:44.680Z,16.80
2022-07-25T02:16:11.513Z,16.70
2022-07-25T02:18:43.728Z,16.50
2022-07-25T02:21:14.453Z,15.40
2022-07-25T02:23:41.837Z,15.20
2022-07-25T02:26:08.473Z,15.57
2022-07-25T02:28:35.187Z,15.10
2022-07-25T02:31:01.920Z,16.47
2022-07-25T02:33:28.840Z,14.67
2022-07-25T02:35:55.567Z,16.07
2022-07-25T02:38:22.272Z,15.00
2022-07-25T02:40:54.728Z,15.57
2022-07-25T02:43:22.865Z,15.60
2022-07-25T02:45:49.598Z,17.43
2022-07-25T02:48:16.390Z,16.23
2022-07-25T02:50:43.057Z,18.10
2022-07-25T02:53:09.722Z,17.30
2022-07-25T02:55:36.380Z,16.50
2022-07-25T02:58:03.121Z,17.27
2022-07-25T03:00:30.437Z,18.50
2022-07-25T03:02:57.348Z,17.50
2022-07-25T03:05:24.132Z,15.33
2022-07-25T03:07:50.765Z,17.43
2022-07-25T03:10:17.474Z,15.90
2022-07-25T03:12:44.731Z,18.40
2022-07-25T03:15:11.971Z,16.80
2022-07-25T03:17:38.782Z,16.93
2022-07-25T03:20:06.971Z,19.73
2022-07-25T03:22:33.629Z,16.63
2022-07-25T03:25:00.233Z,17.30
2022-07-25T03:27:26.918Z,15.10
2022-07-25T03:29:54.646Z,15.40
2022-07-25T03:32:21.328Z,16.23
2022-07-25T03:34:47.993Z,16.27
2022-07-25T03:37:14.733Z,14.93
2022-07-25T03:39:41.408Z,16.90
2022-07-25T03:42:08.090Z,16.90
2022-07-25T03:44:34.885Z,16.20
2022-07-25T03:47:01.491Z,17.07
2022-07-25T03:49:28.124Z,17.10
2022-07-25T03:51:54.753Z,17.40
2022-07-25T03:54:21.436Z,16.80
2022-07-25T03:56:48.957Z,17.07
2022-07-25T03:59:17.370Z,15.43
2022-07-25T04:01:44.972Z,15.27
2022-07-25T04:04:11.720Z,13.83
2022-07-25T04:06:38.939Z,15.70
2022-07-25T04:09:06.155Z,15.60
2022-07-25T04:11:32.896Z,15.90
2022-07-25T04:13:59.551Z,15.90
2022-07-25T04:16:27.810Z,14.97
2022-07-25T04:18:54.750Z,15.13
2022-07-25T04:21:22.921Z,15.60
2022-07-25T04:23:49.765Z,13.93
2022-07-25T04:26:17.038Z,14.13
2022-07-25T04:28:43.713Z,15.40
2022-07-25T04:31:10.384Z,14.10
2022-07-25T04:33:37.777Z,13.93
2022-07-25T04:36:04.789Z,15.07
2022-07-25T04:38:31.853Z,13.33
2022-07-25T04:40:58.562Z,14.20
2022-07-25T04:43:25.315Z,13.60
2022-07-25T04:45:52.396Z,15.10
2022-07-25T04:48:19.444Z,14.70
2022-07-25T04:50:46.182Z,11.90
2022-07-25T04:53:12.899Z,12.60
2022-07-25T04:55:40.779Z,12.00
2022-07-25T04:58:07.414Z,13.17
2022-07-25T05:00:34.304Z,12.87
2022-07-25T05:03:00.971Z,11.80
2022-07-25T05:05:28.030Z,12.67
2022-07-25T05:07:58.496Z,10.93
2022-07-25T05:10:25.973Z,12.40
2022-07-25T05:12:52.651Z,12.40
2022-07-25T05:15:19.603Z,10.57
2022-07-25T05:17:46.647Z,10.43
2022-07-25T05:20:13.463Z,10.53
2022-07-25T05:22:40.292Z,10.77
2022-07-25T05:25:07.668Z,8.90
2022-07-25T05:27:34.342Z,8.87
2022-07-25T05:30:01.060Z,8.17
2022-07-25T05:32:27.768Z,7.57
2022-07-25T05:34:54.455Z,8.67
2022-07-25T05:37:21.209Z,8.57
2022-07-25T05:39:48.340Z,9.53
2022-07-25T05:42:15.002Z,8.70
2022-07-25T05:44:41.722Z,8.20
2022-07-25T05:47:09.566Z,8.37
2022-07-25T05:49:36.511Z,7.80
2022-07-25T05:52:03.566Z,8.40
2022-07-25T05:54:37.804Z,8.60
2022-07-25T05:57:04.490Z,8.47
2022-07-25T05:59:31.194Z,8.53
2022-07-25T06:01:57.997Z,9.87
2022-07-25T06:04:27.281Z,8.80
2022-07-25T06:07:40.607Z,8.93
2022-07-25T06:10:28.976Z,9.00
2022-07-25T06:12:59.658Z,7.97
2022-07-25T06:15:27.568Z,8.93
2022-07-25T06:17:54.858Z,7.87
2022-07-25T06:20:21.953Z,7.50
2022-07-25T06:22:49.283Z,8.23
2022-07-25T06:25:16.578Z,7.60
2022-07-25T06:27:43.603Z,7.67
2022-07-25T06:30:20.257Z,7.67
2022-07-25T06:34:25.774Z,7.63
2022-07-25T06:36:55.637Z,7.77
2022-07-25T06:39:22.517Z,7.70
2022-07-25T06:41:49.561Z,7.60
2022-07-25T06:44:17.939Z,8.60
2022-07-25T06:46:46.255Z,7.03
2022-07-25T06:49:13.669Z,7.60
2022-07-25T06:51:40.553Z,7.57
2022-07-25T06:54:07.784Z,7.90
2022-07-25T06:56:34.777Z,6.93
2022-07-25T06:59:01.478Z,7.57
2022-07-25T07:01:29.227Z,10.27
2022-07-25T07:03:56.110Z,8.37
2022-07-25T07:06:22.831Z,7.80
2022-07-25T07:08:52.039Z,8.17
2022-07-25T07:11:19.066Z,7.43
2022-07-25T07:13:46.080Z,6.60
2022-07-25T07:16:12.985Z,8.50
2022-07-25T07:18:39.718Z,8.00
2022-07-25T07:21:06.723Z,7.30
2022-07-25T07:23:34.530Z,7.87
2022-07-25T07:26:03.400Z,7.37
2022-07-25T07:28:30.121Z,7.33
2022-07-25T07:31:15.908Z,7.40
2022-07-25T07:33:43.489Z,9.33
2022-07-25T07:36:13.135Z,6.70
2022-07-25T07:38:40.209Z,6.40
2022-07-25T07:41:07.629Z,6.90
2022-07-25T07:43:34.817Z,6.83
2022-07-25T07:46:01.993Z,7.00
2022-07-25T07:48:29.837Z,7.63
2022-07-25T07:50:57.039Z,8.57
2022-07-25T07:53:43.750Z,7.67
2022-07-25T07:56:10.542Z,6.70
2022-07-25T07:58:37.299Z,6.90
2022-07-25T08:01:04.494Z,6.87
2022-07-25T08:03:31.629Z,7.70
2022-07-25T08:05:58.606Z,6.30
2022-07-25T08:08:30.635Z,6.20
2022-07-25T08:11:00.289Z,7.27
2022-07-25T08:13:28.644Z,7.93
2022-07-25T08:15:58.496Z,6.93
2022-07-25T08:18:26.312Z,7.50
2022-07-25T08:20:53.575Z,8.13
2022-07-25T08:26:10.549Z,8.20
2022-07-25T08:29:29.457Z,7.17
2022-07-25T08:31:56.197Z,7.17
2022-07-25T08:34:22.889Z,7.60
2022-07-25T08:36:49.796Z,9.50
2022-07-25T08:39:16.574Z,6.30
2022-07-25T08:41:43.321Z,6.87
2022-07-25T08:44:10.946Z,6.47
2022-07-25T08:46:40.578Z,5.33
2022-07-25T08:49:09.438Z,5.60
2022-07-25T08:51:38.718Z,5.23
2022-07-25T08:54:06.058Z,5.30
2022-07-25T08:56:34.255Z,5.27
2022-07-25T08:59:01.387Z,5.70
2022-07-25T09:01:34.582Z,5.27
2022-07-25T09:04:03.050Z,6.70
2022-07-25T09:06:30.243Z,5.00
2022-07-25T09:09:00.796Z,5.87
2022-07-25T09:11:29.143Z,6.40
2022-07-25T09:14:05.095Z,6.17
2022-07-25T09:16:34.124Z,6.40
2022-07-25T09:19:12.076Z,6.40
2022-07-25T09:21:42.263Z,5.30
2022-07-25T09:24:18.601Z,5.27
2022-07-25T09:26:55.677Z,4.97
2022-07-25T09:29:23.668Z,4.53
2022-07-25T09:31:51.379Z,4.17
2022-07-25T09:34:30.076Z,4.90
2022-07-25T09:36:57.006Z,3.50
2022-07-25T09:39:52.239Z,3.30
2022-07-25T09:46:35.248Z,3.73
2022-07-25T09:49:05.506Z,3.40
2022-07-25T09:55:11.731Z,3.60
2022-07-25T09:57:42.589Z,4.00
2022-07-25T10:00:09.979Z,4.00
2022-07-25T10:02:41.386Z,4.03
2022-07-25T10:05:11.870Z,3.77
2022-07-25T10:07:40.398Z,3.90
2022-07-25T10:10:27.139Z,4.93
2022-07-25T10:13:10.233Z,3.50
2022-07-25T10:15:49.728Z,3.67
2022-07-25T10:18:23.854Z,3.00
2022-07-25T10:20:52.033Z,2.97
2022-07-25T10:23:18.891Z,3.50
2022-07-25T10:26:04.581Z,3.47
2022-07-25T10:28:39.192Z,2.20
2022-07-25T10:31:16.455Z,3.53
2022-07-25T10:33:43.516Z,3.93
2022-07-25T10:36:11.557Z,2.57
2022-07-25T10:38:40.177Z,3.37
2022-07-25T10:41:09.245Z,4.13
2022-07-25T10:43:43.611Z,3.53
2022-07-25T10:46:18.589Z,2.80
2022-07-25T10:48:45.607Z,3.60
2022-07-25T10:51:18.040Z,2.90
2022-07-25T10:53:48.904Z,2.83
2022-07-25T10:56:23.577Z,3.70
2022-07-25T10:58:54.494Z,3.40
2022-07-25T11:01:21.454Z,2.93
2022-07-25T11:03:54.471Z,3.70
2022-07-25T11:07:10.109Z,3.07
2022-07-25T11:10:13.858Z,3.70
2022-07-25T11:12:46.614Z,3.10
2022-07-25T11:15:17.212Z,4.30
2022-07-25T11:18:14.939Z,2.80
2022-07-25T11:20:46.668Z,3.20
2022-07-25T11:23:22.122Z,2.90
2022-07-25T11:25:50.603Z,3.80
2022-07-25T11:28:17.650Z,3.23
2022-07-25T11:30:44.641Z,2.30
2022-07-25T11:33:20.644Z,2.93
2022-07-25T11:35:50.064Z,2.93
2022-07-25T11:38:25.260Z,2.87
2022-07-25T11:40:53.486Z,2.60
2022-07-25T11:43:21.257Z,3.20
2022-07-25T11:46:08.495Z,2.53
2022-07-25T11:48:56.748Z,2.60
2022-07-25T11:52:22.031Z,2.67
2022-07-25T11:54:57.036Z,2.83
2022-07-25T11:57:29.167Z,3.23
2022-07-25T12:04:28.085Z,2.80
2022-07-25T12:10:05.377Z,3.97
2022-07-25T12:12:46.039Z,2.60
2022-07-25T12:15:16.262Z,2.50
2022-07-25T12:17:43.914Z,2.33
2022-07-25T12:20:15.295Z,2.90
2022-07-25T12:22:42.350Z,2.87
2022-07-25T12:25:09.883Z,2.97
2022-07-25T12:27:39.859Z,1.73
2022-07-25T12:30:07.421Z,2.23
2022-07-25T12:32:35.652Z,2.30
2022-07-25T12:35:03.624Z,2.00
2022-07-25T12:37:30.588Z,1.83
2022-07-25T12:39:58.673Z,1.40
2022-07-25T12:42:28.746Z,1.80
2022-07-25T12:44:56.138Z,1.63
2022-07-25T12:47:23.394Z,1.83
2022-07-25T12:49:50.437Z,1.90
2022-07-25T12:52:17.361Z,2.10
2022-07-25T12:54:45.576Z,1.57
2022-07-25T12:57:13.568Z,1.57
2022-07-25T12:59:40.673Z,2.57
2022-07-25T13:02:08.686Z,2.10
2022-07-25T13:04:37.131Z,1.87
2022-07-25T13:07:04.527Z,1.90
2022-07-25T13:09:31.534Z,2.20
2022-07-25T13:11:58.529Z,1.83
2022-07-25T13:14:25.543Z,2.40
2022-07-25T13:16:57.143Z,1.80
2022-07-25T13:19:24.058Z,2.10
2022-07-25T13:21:50.900Z,1.80
2022-07-25T13:24:17.707Z,2.13
2022-07-25T13:26:44.750Z,2.10
2022-07-25T13:29:12.429Z,2.30
2022-07-25T13:31:41.058Z,2.53
2022-07-25T13:34:09.018Z,2.47
2022-07-25T13:36:36.846Z,1.90
2022-07-25T13:39:04.925Z,2.60
2022-07-25T13:41:32.301Z,2.00
2022-07-25T13:43:59.350Z,2.37
2022-07-25T13:46:26.339Z,2.03
2022-07-25T13:48:53.156Z,3.13
2022-07-25T13:51:19.956Z,1.93
2022-07-25T13:53:46.905Z,2.67
2022-07-25T13:56:13.838Z,1.90
2022-07-25T13:58:41.036Z,1.47
2022-07-25T14:01:08.761Z,1.87
2022-07-25T14:03:37.072Z,2.20
2022-07-25T14:06:04.402Z,2.50
2022-07-25T14:08:31.277Z,1.70
2022-07-25T14:11:00.264Z,2.03
2022-07-25T14:13:27.057Z,4.20
2022-07-25T14:15:53.936Z,2.10
2022-07-25T14:18:24.144Z,2.90
2022-07-25T14:20:51.034Z,2.30
2022-07-25T14:23:17.963Z,2.93
2022-07-25T14:25:47.621Z,2.60
2022-07-25T14:28:41.363Z,2.50
2022-07-25T14:34:40.243Z,3.40
2022-07-25T14:37:10.427Z,2.87
2022-07-25T14:39:40.617Z,3.00
2022-07-25T14:42:22.182Z,3.43
2022-07-25T14:44:51.310Z,2.00
2022-07-25T14:47:18.503Z,2.70
2022-07-25T14:49:45.581Z,3.23
2022-07-25T14:52:39.377Z,3.13
2022-07-25T14:55:09.511Z,2.23
2022-07-25T14:57:39.102Z,1.90
2022-07-25T15:00:17.420Z,1.83
2022-07-25T15:02:50.413Z,2.80
2022-07-25T15:05:18.083Z,1.87
2022-07-25T15:07:57.009Z,2.50
2022-07-25T15:10:34.804Z,2.23
2022-07-25T15:16:00.813Z,2.23
2022-07-25T15:18:28.027Z,2.10
2022-07-25T15:21:10.193Z,1.73
2022-07-25T15:23:37.412Z,2.10
2022-07-25T15:26:08.749Z,1.90
2022-07-25T15:28:37.222Z,2.23
2022-07-25T15:31:08.604Z,2.40
2022-07-25T15:33:35.936Z,2.00
2022-07-25T15:36:02.970Z,2.23
2022-07-25T15:38:30.852Z,2.60
2022-07-25T15:40:58.499Z,2.30
2022-07-25T15:43:25.749Z,1.67
2022-07-25T15:45:55.886Z,1.57
2022-07-25T15:48:23.689Z,1.90
2022-07-25T15:50:53.838Z,1.90
2022-07-25T15:53:20.770Z,3.47
2022-07-25T15:55:47.595Z,2.00
2022-07-25T15:58:15.017Z,2.50
2022-07-25T16:00:41.865Z,1.80
2022-07-25T16:03:09.084Z,1.80
2022-07-25T16:05:37.056Z,2.40
2022-07-25T16:08:03.908Z,1.73
2022-07-25T16:10:31.984Z,2.43
2022-07-25T16:12:58.956Z,2.10
2022-07-25T16:15:26.417Z,2.03
2022-07-25T16:17:53.773Z,2.40
2022-07-25T16:20:21.435Z,2.77
2022-07-25T16:22:49.084Z,2.80
2022-07-25T16:25:16.040Z,2.63
2022-07-25T16:27:43.056Z,3.00
2022-07-25T16:30:09.998Z,2.37
2022-07-25T16:32:36.677Z,2.30
2022-07-25T16:35:03.511Z,4.20
2022-07-25T16:37:30.205Z,10.77
2022-07-25T16:39:56.914Z,6.50
2022-07-25T16:42:23.657Z,3.40
2022-07-25T16:44:50.372Z,4.63
2022-07-25T16:47:17.094Z,3.90
2022-07-25T16:49:43.995Z,6.40
2022-07-25T16:52:10.702Z,7.90
2022-07-25T16:54:38.542Z,5.80
2022-07-25T16:57:05.920Z,5.07
2022-07-25T16:59:32.558Z,4.93
2022-07-25T17:01:59.352Z,10.07
2022-07-25T17:04:26.295Z,4.50
2022-07-25T17:06:53.366Z,4.67
2022-07-25T17:09:20.139Z,3.93
2022-07-25T17:11:47.016Z,3.63
2022-07-25T17:14:14.146Z,3.97
2022-07-25T17:16:41.509Z,1.97
2022-07-25T17:19:08.796Z,2.43
2022-07-25T17:21:36.213Z,2.30
2022-07-25T17:24:03.226Z,2.10
2022-07-25T17:26:30.551Z,2.40
2022-07-25T17:29:10.758Z,3.20
2022-07-25T17:31:40.638Z,2.53
2022-07-25T17:34:07.642Z,2.40
2022-07-25T17:36:34.478Z,1.87
2022-07-25T17:39:01.345Z,2.23
2022-07-25T17:41:28.586Z,1.53
2022-07-25T17:43:59.360Z,1.80
2022-07-25T17:46:26.651Z,1.50
2022-07-25T17:48:53.685Z,2.23
2022-07-25T17:51:20.703Z,1.73
2022-07-25T17:53:47.528Z,1.80
2022-07-25T17:56:14.279Z,3.57
2022-07-25T17:58:41.221Z,2.20
2022-07-25T18:01:10.514Z,2.07
2022-07-25T18:03:37.865Z,1.83
2022-07-25T18:06:05.107Z,2.27
2022-07-25T18:08:35.477Z,1.27
2022-07-25T18:11:07.636Z,1.80
2022-07-25T18:13:35.123Z,2.13
2022-07-25T18:16:02.650Z,1.73
2022-07-25T18:18:34.439Z,1.57
2022-07-25T18:21:01.760Z,1.57
2022-07-25T18:23:35.047Z,1.70
2022-07-25T18:26:02.185Z,1.90
2022-07-25T18:28:29.482Z,1.67
2022-07-25T18:30:56.752Z,1.30
2022-07-25T18:33:23.733Z,2.33
2022-07-25T18:35:51.512Z,1.17
2022-07-25T18:38:18.708Z,1.90
2022-07-25T18:40:46.234Z,1.50
2022-07-25T18:43:15.371Z,1.57
2022-07-25T18:45:42.931Z,1.63
2022-07-25T18:48:10.059Z,2.07
2022-07-25T18:50:36.905Z,1.63
2022-07-25T18:53:03.717Z,1.50
2022-07-25T18:55:30.531Z,1.13
2022-07-25T18:57:57.338Z,1.07
2022-07-25T19:00:24.159Z,1.17
2022-07-25T19:02:50.951Z,1.30
2022-07-25T19:05:18.108Z,1.10
2022-07-25T19:07:45.555Z,1.30
2022-07-25T19:10:12.786Z,1.00
2022-07-25T19:12:40.146Z,1.10
2022-07-25T19:15:07.439Z,1.20
2022-07-25T19:17:34.774Z,1.00
2022-07-25T19:20:05.074Z,1.17
2022-07-25T19:22:38.421Z,1.17
2022-07-25T19:25:15.144Z,1.93
2022-07-25T19:27:42.304Z,1.00
2022-07-25T19:30:13.897Z,1.20
2022-07-25T19:32:44.192Z,1.20
2022-07-25T19:35:11.765Z,1.00
2022-07-25T19:37:38.515Z,1.20
2022-07-25T19:40:06.480Z,1.30
2022-07-25T19:42:36.598Z,1.10
2022-07-25T19:45:03.915Z,1.33
2022-07-25T19:47:30.645Z,1.13
2022-07-25T19:49:57.518Z,1.73
2022-07-25T19:52:24.224Z,1.10
2022-07-25T19:54:51.051Z,1.27
2022-07-25T19:57:17.723Z,1.93
2022-07-25T19:59:44.634Z,1.20
2022-07-25T20:02:12.179Z,1.13
2022-07-25T20:04:38.997Z,1.20
2022-07-25T20:07:05.864Z,1.00
2022-07-25T20:09:33.712Z,1.20
2022-07-25T20:12:01.492Z,0.80
2022-07-25T20:14:28.641Z,1.20
2022-07-25T20:16:55.853Z,1.13
2022-07-25T20:19:23.770Z,1.20
2022-07-25T20:21:50.527Z,1.00
2022-07-25T20:24:21.251Z,1.60
2022-07-25T20:26:48.846Z,1.30
2022-07-25T20:29:15.580Z,1.13
2022-07-25T20:31:45.122Z,1.23
2022-07-25T20:34:12.414Z,1.13
2022-07-25T20:36:39.412Z,1.10
2022-07-25T20:39:08.741Z,0.97
2022-07-25T20:41:38.897Z,1.23
2022-07-25T20:44:05.858Z,1.10
2022-07-25T20:46:35.994Z,1.53
2022-07-25T20:49:04.194Z,1.17
2022-07-25T20:51:31.274Z,1.27
2022-07-25T20:53:58.221Z,1.00
2022-07-25T20:56:25.260Z,1.13
2022-07-25T20:58:52.167Z,1.10
2022-07-25T21:01:20.290Z,1.63
2022-07-25T21:03:47.258Z,1.20
2022-07-25T21:06:14.100Z,1.33
2022-07-25T21:08:41.172Z,1.20
2022-07-25T21:11:08.306Z,0.90
2022-07-25T21:13:35.498Z,1.00
2022-07-25T21:16:05.719Z,1.00
2022-07-25T21:18:32.521Z,1.27
2022-07-25T21:20:59.468Z,0.90
2022-07-25T21:23:26.521Z,1.00
2022-07-25T21:25:53.468Z,2.03
2022-07-25T21:28:20.306Z,1.00
2022-07-25T21:30:47.166Z,1.33
2022-07-25T21:33:14.873Z,1.43
2022-07-25T21:35:49.165Z,1.10
2022-07-25T21:38:26.977Z,1.03
2022-07-25T21:40:54.888Z,1.10
2022-07-25T21:43:21.622Z,1.60
2022-07-25T21:45:48.776Z,1.40
2022-07-25T21:48:15.749Z,1.43
2022-07-25T21:50:49.331Z,1.80
2022-07-25T21:53:17.516Z,1.20
2022-07-25T21:58:35.140Z,1.10
2022-07-25T22:01:02.173Z,0.80
2022-07-25T22:03:29.087Z,1.30
2022-07-25T22:05:57.003Z,2.17
2022-07-25T22:08:23.666Z,1.83
2022-07-25T22:10:50.288Z,1.00
2022-07-25T22:13:16.938Z,0.97
2022-07-25T22:15:44.395Z,0.90
2022-07-25T22:18:11.261Z,1.40
2022-07-25T22:20:37.960Z,1.27
2022-07-25T22:23:04.864Z,1.60
2022-07-25T22:25:31.753Z,1.07
2022-07-25T22:27:58.582Z,1.20
2022-07-25T22:30:25.411Z,1.40
2022-07-25T22:32:52.508Z,1.60
2022-07-25T22:35:19.225Z,1.20
2022-07-25T22:37:46.097Z,1.73
2022-07-25T22:40:13.034Z,2.13
2022-07-25T22:42:39.720Z,1.20
2022-07-25T22:45:06.850Z,1.00
2022-07-25T22:47:33.530Z,1.23
2022-07-25T22:50:00.218Z,1.50
2022-07-25T22:52:26.950Z,1.10
2022-07-25T22:54:53.645Z,1.37
2022-07-25T22:57:20.336Z,1.10
2022-07-25T22:59:49.293Z,2.43
2022-07-25T23:02:16.077Z,1.83
2022-07-25T23:04:42.821Z,1.20
2022-07-25T23:07:09.495Z,1.30
2022-07-25T23:09:36.526Z,1.30
2022-07-25T23:12:04.175Z,1.10
2022-07-25T23:14:30.816Z,1.50
2022-07-25T23:17:19.850Z,1.27
2022-07-25T23:19:50.874Z,1.20
2022-07-25T23:22:18.452Z,1.10
2022-07-25T23:24:45.165Z,1.20
2022-07-25T23:27:11.977Z,1.73
2022-07-25T23:29:38.711Z,1.10
2022-07-25T23:32:05.678Z,1.37
2022-07-25T23:34:32.450Z,2.60
2022-07-25T23:37:02.553Z,1.50
2022-07-25T23:39:29.402Z,1.60
2022-07-25T23:41:56.006Z,1.17
2022-07-25T23:44:22.651Z,1.43
2022-07-25T23:46:50.889Z,1.97
2022-07-25T23:49:17.656Z,1.40
2022-07-25T23:51:44.395Z,2.53
2022-07-25T23:54:11.065Z,2.53
2022-07-25T23:57:08.369Z,1.63
2022-07-25T23:59:35.561Z,1.80
